createdAt,value
2019-01-25T00:00:29.255Z,50.30
2019-01-25T00:03:02.325Z,43.03
2019-01-25T00:05:31.583Z,39.90
2019-01-25T00:08:01.993Z,41.13
2019-01-25T00:10:33.502Z,40.80
2019-01-25T00:13:02.318Z,38.83
2019-01-25T00:15:30.973Z,40.03
2019-01-25T00:17:59.790Z,40.17
2019-01-25T00:20:28.474Z,39.73
2019-01-25T00:22:57.159Z,41.80
2019-01-25T00:25:25.950Z,43.30
2019-01-25T00:27:54.635Z,42.87
2019-01-25T00:30:23.423Z,38.97
2019-01-25T00:32:52.686Z,42.23
2019-01-25T00:35:21.984Z,43.33
2019-01-25T00:37:53.379Z,36.77
2019-01-25T00:40:22.529Z,40.70
2019-01-25T00:42:51.361Z,38.67
2019-01-25T00:45:38.262Z,40.07
2019-01-25T00:48:17.602Z,42.63
2019-01-25T00:50:46.547Z,39.33
2019-01-25T00:53:15.255Z,40.63
2019-01-25T00:55:43.981Z,41.53
2019-01-25T00:58:12.747Z,47.33
2019-01-25T01:00:41.556Z,38.60
2019-01-25T01:03:10.220Z,43.13
2019-01-25T01:05:39.032Z,46.33
2019-01-25T01:08:07.718Z,40.73
2019-01-25T01:10:36.407Z,39.97
2019-01-25T01:13:05.302Z,42.33
2019-01-25T01:15:33.944Z,36.23
2019-01-25T01:18:02.671Z,44.27
2019-01-25T01:20:31.437Z,43.27
2019-01-25T01:23:00.143Z,39.80
2019-01-25T01:25:28.830Z,43.77
2019-01-25T01:27:57.619Z,42.47
2019-01-25T01:30:26.306Z,36.03
2019-01-25T01:32:54.978Z,46.73
2019-01-25T01:35:23.886Z,45.57
2019-01-25T01:37:52.675Z,47.70
2019-01-25T01:40:23.007Z,43.93
2019-01-25T01:42:52.120Z,48.03
2019-01-25T01:45:20.882Z,43.53
2019-01-25T01:47:49.545Z,49.97
2019-01-25T01:50:19.492Z,46.20
2019-01-25T01:52:49.057Z,47.43
2019-01-25T01:55:18.051Z,55.43
2019-01-25T01:57:50.547Z,50.00
2019-01-25T02:00:25.313Z,49.40
2019-01-25T02:02:54.206Z,47.63
2019-01-25T02:05:23.795Z,52.27
2019-01-25T02:07:53.093Z,51.87
2019-01-25T02:10:29.182Z,48.27
2019-01-25T02:12:54.357Z,57.27
2019-01-25T02:15:23.526Z,51.30
2019-01-25T02:17:52.956Z,43.87
2019-01-25T02:20:24.628Z,45.57
2019-01-25T02:22:53.400Z,40.47
2019-01-25T02:25:22.191Z,40.83
2019-01-25T02:27:50.875Z,39.80
2019-01-25T02:30:21.519Z,35.77
2019-01-25T02:32:50.285Z,45.27
2019-01-25T02:35:19.013Z,38.67
2019-01-25T02:37:47.671Z,38.07
2019-01-25T02:40:18.506Z,39.10
2019-01-25T02:42:47.170Z,36.67
2019-01-25T02:45:15.880Z,34.10
2019-01-25T02:47:44.605Z,39.03
2019-01-25T02:50:15.815Z,40.23
2019-01-25T02:52:44.500Z,43.73
2019-01-25T02:55:14.088Z,40.80
2019-01-25T02:57:42.796Z,48.53
2019-01-25T03:00:25.202Z,41.90
2019-01-25T03:02:54.405Z,43.63
2019-01-25T03:05:23.694Z,43.77
2019-01-25T03:07:52.711Z,43.07
2019-01-25T03:10:28.709Z,44.47
2019-01-25T03:12:52.529Z,36.97
2019-01-25T03:15:25.668Z,44.23
2019-01-25T03:17:54.612Z,45.93
2019-01-25T03:20:23.696Z,45.70
2019-01-25T03:22:52.497Z,47.60
2019-01-25T03:25:23.339Z,43.03
2019-01-25T03:27:52.121Z,47.33
2019-01-25T03:30:22.435Z,51.37
2019-01-25T03:32:51.132Z,46.97
2019-01-25T03:35:21.574Z,47.47
2019-01-25T03:37:50.460Z,47.87
2019-01-25T03:40:22.616Z,49.57
2019-01-25T03:42:51.303Z,50.13
2019-01-25T03:45:20.093Z,50.47
2019-01-25T03:47:48.987Z,46.63
2019-01-25T03:50:20.233Z,54.00
2019-01-25T03:52:49.019Z,54.47
2019-01-25T03:55:17.807Z,49.93
2019-01-25T03:57:46.575Z,54.60
2019-01-25T04:00:18.032Z,60.23
2019-01-25T04:02:46.712Z,49.23
2019-01-25T04:05:16.245Z,49.93
2019-01-25T04:07:45.134Z,47.33
2019-01-25T04:10:16.392Z,49.17
2019-01-25T04:12:45.273Z,52.17
2019-01-25T04:15:16.711Z,51.60
2019-01-25T04:17:45.512Z,50.17
2019-01-25T04:20:19.524Z,49.40
2019-01-25T04:22:48.413Z,51.43
2019-01-25T04:25:19.000Z,44.80
2019-01-25T04:27:47.833Z,56.13
2019-01-25T04:30:18.721Z,64.80
2019-01-25T04:32:47.458Z,51.40
2019-01-25T04:35:16.123Z,52.43
2019-01-25T04:37:44.936Z,50.70
2019-01-25T04:40:16.795Z,52.70
2019-01-25T04:42:46.283Z,56.17
2019-01-25T04:45:21.234Z,57.33
2019-01-25T04:47:49.918Z,54.73
2019-01-25T04:50:23.215Z,53.93
2019-01-25T04:52:52.192Z,57.97
2019-01-25T04:55:25.626Z,59.97
2019-01-25T04:57:54.386Z,59.33
2019-01-25T05:00:24.104Z,62.77
2019-01-25T05:02:55.303Z,62.30
2019-01-25T05:05:24.017Z,58.50
2019-01-25T05:07:56.933Z,58.77
2019-01-25T05:10:25.628Z,53.77
2019-01-25T05:12:54.459Z,67.80
2019-01-25T05:15:23.304Z,67.10
2019-01-25T05:17:53.723Z,64.47
2019-01-25T05:20:22.609Z,64.83
2019-01-25T05:22:58.965Z,61.40
2019-01-25T05:25:28.464Z,58.03
2019-01-25T05:27:57.170Z,60.50
2019-01-25T05:30:26.674Z,53.43
2019-01-25T05:32:55.463Z,59.13
2019-01-25T05:35:24.121Z,55.40
2019-01-25T05:37:52.910Z,62.47
2019-01-25T05:40:26.445Z,56.37
2019-01-25T05:42:55.223Z,61.27
2019-01-25T05:45:24.013Z,68.33
2019-01-25T05:47:59.716Z,65.43
2019-01-25T05:50:29.558Z,80.47
2019-01-25T05:52:58.367Z,73.07
2019-01-25T05:55:27.158Z,59.70
2019-01-25T05:58:03.097Z,72.77
2019-01-25T06:00:33.422Z,66.53
2019-01-25T06:03:13.584Z,63.13
2019-01-25T06:05:42.256Z,66.70
2019-01-25T06:08:25.585Z,64.13
2019-01-25T06:10:54.295Z,67.03
2019-01-25T06:13:22.982Z,62.63
2019-01-25T06:15:51.805Z,63.23
2019-01-25T06:18:20.559Z,65.03
2019-01-25T06:20:54.350Z,71.73
2019-01-25T06:23:23.155Z,62.83
2019-01-25T06:25:53.009Z,67.17
2019-01-25T06:28:21.736Z,60.53
2019-01-25T06:30:50.649Z,67.63
2019-01-25T06:33:19.525Z,67.50
2019-01-25T06:35:48.213Z,58.60
2019-01-25T06:38:17.121Z,38.83
2019-01-25T06:40:45.915Z,52.67
2019-01-25T06:43:14.706Z,56.37
2019-01-25T06:45:43.700Z,58.43
2019-01-25T06:48:12.584Z,58.13
2019-01-25T06:50:41.370Z,58.97
2019-01-25T06:53:10.158Z,58.20
2019-01-25T06:55:38.860Z,58.97
2019-01-25T06:58:20.842Z,54.47
2019-01-25T07:00:51.171Z,53.73
2019-01-25T07:03:20.059Z,50.83
2019-01-25T07:05:48.951Z,47.30
2019-01-25T07:08:19.581Z,60.23
2019-01-25T07:10:48.657Z,54.57
2019-01-25T07:13:17.470Z,45.53
2019-01-25T07:15:46.242Z,56.33
2019-01-25T07:18:15.150Z,51.73
2019-01-25T07:20:43.927Z,55.33
2019-01-25T07:23:12.625Z,61.60
2019-01-25T07:25:41.410Z,58.33
2019-01-25T07:28:10.302Z,42.47
2019-01-25T07:30:39.101Z,54.50
2019-01-25T07:33:07.784Z,55.23
2019-01-25T07:35:37.068Z,51.47
2019-01-25T07:38:06.309Z,56.87
2019-01-25T07:40:35.080Z,57.60
2019-01-25T07:43:03.856Z,49.47
2019-01-25T07:45:33.163Z,58.43
2019-01-25T07:48:02.365Z,60.00
2019-01-25T07:50:32.075Z,57.47
2019-01-25T07:53:00.856Z,55.80
2019-01-25T07:55:29.649Z,57.20
2019-01-25T07:57:58.435Z,51.70
2019-01-25T08:00:27.326Z,57.90
2019-01-25T08:02:56.016Z,68.67
2019-01-25T08:05:24.904Z,69.50
2019-01-25T08:07:53.590Z,67.50
2019-01-25T08:10:23.303Z,87.90
2019-01-25T08:12:52.094Z,89.27
2019-01-25T08:15:25.558Z,76.50
2019-01-25T08:17:54.426Z,82.70
2019-01-25T08:20:23.452Z,82.67
2019-01-25T08:22:52.136Z,86.60
2019-01-25T08:25:21.151Z,70.80
2019-01-25T08:27:50.146Z,101.00
2019-01-25T08:30:20.908Z,61.47
2019-01-25T08:32:49.642Z,61.50
2019-01-25T08:35:18.576Z,65.73
2019-01-25T08:37:47.483Z,54.67
2019-01-25T08:40:16.932Z,67.90
2019-01-25T08:42:45.910Z,71.30
2019-01-25T08:45:15.883Z,77.00
2019-01-25T08:47:44.665Z,69.40
2019-01-25T08:50:27.217Z,100.50
2019-01-25T08:52:57.165Z,81.50
2019-01-25T08:55:29.065Z,73.53
2019-01-25T08:57:58.861Z,99.67
2019-01-25T09:00:27.648Z,99.97
2019-01-25T09:02:56.538Z,79.07
2019-01-25T09:05:25.326Z,109.20
2019-01-25T09:07:54.097Z,116.10
2019-01-25T09:10:25.233Z,89.23
2019-01-25T09:12:54.048Z,126.20
2019-01-25T09:15:30.823Z,104.43
2019-01-25T09:17:59.612Z,123.07
2019-01-25T09:20:28.298Z,93.07
2019-01-25T09:22:56.963Z,126.83
2019-01-25T09:25:25.981Z,113.23
2019-01-25T09:27:54.768Z,100.27
2019-01-25T09:30:25.369Z,67.20
2019-01-25T09:32:54.292Z,77.50
2019-01-25T09:35:23.303Z,65.27
2019-01-25T09:37:52.278Z,59.57
2019-01-25T09:40:23.530Z,59.10
2019-01-25T09:42:52.648Z,65.23
2019-01-25T09:45:21.603Z,69.03
2019-01-25T09:47:50.582Z,70.43
2019-01-25T09:50:20.864Z,60.47
2019-01-25T09:52:49.621Z,65.03
2019-01-25T09:55:25.567Z,52.83
2019-01-25T09:58:03.322Z,55.33
2019-01-25T10:00:35.456Z,55.40
2019-01-25T10:03:04.334Z,53.20
2019-01-25T10:05:32.999Z,57.83
2019-01-25T10:08:01.785Z,53.73
2019-01-25T10:10:30.806Z,54.17
2019-01-25T10:12:59.673Z,53.57
2019-01-25T10:15:29.701Z,57.07
2019-01-25T10:17:58.502Z,56.73
2019-01-25T10:20:27.288Z,67.27
2019-01-25T10:22:56.223Z,56.17
2019-01-25T10:25:25.077Z,66.50
2019-01-25T10:27:53.968Z,62.83
2019-01-25T10:30:28.368Z,58.23
2019-01-25T10:32:58.356Z,61.10
2019-01-25T10:35:27.191Z,62.17
2019-01-25T10:37:56.057Z,64.00
2019-01-25T10:40:24.846Z,66.87
2019-01-25T10:42:53.867Z,63.00
2019-01-25T10:45:33.848Z,69.97
2019-01-25T10:48:02.589Z,59.30
2019-01-25T10:50:31.496Z,58.67
2019-01-25T10:53:00.288Z,64.00
2019-01-25T10:55:28.977Z,65.50
2019-01-25T10:57:57.763Z,67.77
2019-01-25T11:00:26.550Z,64.67
2019-01-25T11:02:58.381Z,59.63
2019-01-25T11:05:29.741Z,68.43
2019-01-25T11:07:58.548Z,54.03
2019-01-25T11:10:27.349Z,72.40
2019-01-25T11:13:00.767Z,76.97
2019-01-25T11:15:26.395Z,71.03
2019-01-25T11:17:55.243Z,78.17
2019-01-25T11:20:25.403Z,60.03
2019-01-25T11:22:54.426Z,67.20
2019-01-25T11:25:34.610Z,65.80
2019-01-25T11:28:03.398Z,81.33
2019-01-25T11:30:32.190Z,70.80
2019-01-25T11:33:01.083Z,54.17
2019-01-25T11:35:29.850Z,56.10
2019-01-25T11:37:58.804Z,56.10
2019-01-25T11:40:30.213Z,55.43
2019-01-25T11:42:59.000Z,54.67
2019-01-25T11:45:28.405Z,55.93
2019-01-25T11:47:58.661Z,51.07
2019-01-25T11:50:27.706Z,51.37
2019-01-25T11:52:56.498Z,49.23
2019-01-25T11:55:25.145Z,54.67
2019-01-25T11:57:53.883Z,60.50
2019-01-25T12:00:26.564Z,54.93
2019-01-25T12:02:55.336Z,63.73
2019-01-25T12:05:25.159Z,59.13
2019-01-25T12:07:54.759Z,52.10
2019-01-25T12:10:29.827Z,51.07
2019-01-25T12:12:58.598Z,60.10
2019-01-25T12:15:27.494Z,55.43
2019-01-25T12:17:56.588Z,53.77
2019-01-25T12:20:31.343Z,56.00
2019-01-25T12:23:00.412Z,55.57
2019-01-25T12:25:29.299Z,54.90
2019-01-25T12:28:19.626Z,61.13
2019-01-25T12:30:48.382Z,73.60
2019-01-25T12:33:17.148Z,87.13
2019-01-25T12:35:45.859Z,81.97
2019-01-25T12:38:14.646Z,67.07
2019-01-25T12:40:43.436Z,83.33
2019-01-25T12:43:12.106Z,62.83
2019-01-25T12:45:40.911Z,86.00
2019-01-25T12:48:09.705Z,85.23
2019-01-25T12:50:48.896Z,61.80
2019-01-25T12:53:14.854Z,88.30
2019-01-25T12:55:43.645Z,78.03
2019-01-25T12:58:12.535Z,101.33
2019-01-25T13:00:42.041Z,78.40
2019-01-25T13:03:10.930Z,85.23
2019-01-25T13:05:39.700Z,70.30
2019-01-25T13:08:08.624Z,69.63
2019-01-25T13:10:37.300Z,67.47
2019-01-25T13:13:06.087Z,90.47
2019-01-25T13:15:34.876Z,72.80
2019-01-25T13:18:03.667Z,99.80
2019-01-25T13:20:32.454Z,74.57
2019-01-25T13:23:01.345Z,85.40
2019-01-25T13:25:31.159Z,66.33
2019-01-25T13:28:00.151Z,92.00
2019-01-25T13:30:31.833Z,80.33
2019-01-25T13:33:01.114Z,72.13
2019-01-25T13:35:31.441Z,84.00
2019-01-25T13:38:00.403Z,118.90
2019-01-25T13:40:29.629Z,82.23
2019-01-25T13:42:58.415Z,107.33
2019-01-25T13:45:27.209Z,85.73
2019-01-25T13:47:57.629Z,87.87
2019-01-25T13:50:28.017Z,76.77
2019-01-25T13:52:56.848Z,90.40
2019-01-25T13:55:25.714Z,77.53
2019-01-25T13:57:55.075Z,87.90
2019-01-25T14:00:32.429Z,73.63
2019-01-25T14:03:01.208Z,90.33
2019-01-25T14:05:32.980Z,77.90
2019-01-25T14:08:01.769Z,107.33
2019-01-25T14:10:32.558Z,76.93
2019-01-25T14:13:01.289Z,90.47
2019-01-25T14:15:30.265Z,75.47
2019-01-25T14:17:59.071Z,79.13
2019-01-25T14:20:32.851Z,75.13
2019-01-25T14:23:01.872Z,88.23
2019-01-25T14:25:30.766Z,77.87
2019-01-25T14:27:59.552Z,104.30
2019-01-25T14:30:36.516Z,106.40
2019-01-25T14:33:05.800Z,103.10
2019-01-25T14:35:34.568Z,111.43
2019-01-25T14:38:03.411Z,85.63
2019-01-25T14:40:32.201Z,114.97
2019-01-25T14:43:00.887Z,120.50
2019-01-25T14:45:29.779Z,77.83
2019-01-25T14:47:58.442Z,95.33
2019-01-25T14:50:33.177Z,112.60
2019-01-25T14:53:02.085Z,116.93
2019-01-25T14:55:30.776Z,129.53
2019-01-25T14:57:59.562Z,131.87
2019-01-25T15:00:28.555Z,125.10
2019-01-25T15:02:57.460Z,120.43
2019-01-25T15:05:26.219Z,131.70
2019-01-25T15:07:55.364Z,126.73
2019-01-25T15:10:25.225Z,123.47
2019-01-25T15:12:56.108Z,113.03
2019-01-25T15:15:24.996Z,110.77
2019-01-25T15:17:53.967Z,78.50
2019-01-25T15:20:25.010Z,113.50
2019-01-25T15:22:53.782Z,88.43
2019-01-25T15:25:22.509Z,120.13
2019-01-25T15:27:51.360Z,135.07
2019-01-25T15:30:22.185Z,86.50
2019-01-25T15:32:51.102Z,111.23
2019-01-25T15:35:20.695Z,85.13
2019-01-25T15:37:49.606Z,109.63
2019-01-25T15:40:19.795Z,88.37
2019-01-25T15:42:48.496Z,112.63
2019-01-25T15:45:21.281Z,94.50
2019-01-25T15:47:51.011Z,124.23
2019-01-25T15:50:22.352Z,98.70
2019-01-25T15:52:51.151Z,122.63
2019-01-25T15:55:20.047Z,85.50
2019-01-25T15:57:49.031Z,120.30
2019-01-25T16:00:28.758Z,97.73
2019-01-25T16:02:57.658Z,112.07
2019-01-25T16:05:26.555Z,112.20
2019-01-25T16:07:55.329Z,114.57
2019-01-25T16:10:24.999Z,94.63
2019-01-25T16:12:53.741Z,137.60
2019-01-25T16:15:24.749Z,134.70
2019-01-25T16:17:53.674Z,144.67
2019-01-25T16:20:22.345Z,151.07
2019-01-25T16:22:52.514Z,136.43
2019-01-25T16:25:26.801Z,151.67
2019-01-25T16:27:55.450Z,163.60
2019-01-25T16:30:29.805Z,141.13
2019-01-25T16:32:58.694Z,153.40
2019-01-25T16:35:27.486Z,160.60
2019-01-25T16:37:56.385Z,150.40
2019-01-25T16:40:27.521Z,165.40
2019-01-25T16:42:56.308Z,153.37
2019-01-25T16:45:27.617Z,140.77
2019-01-25T16:47:56.343Z,129.87
2019-01-25T16:50:25.031Z,147.20
2019-01-25T16:52:53.723Z,135.80
2019-01-25T16:55:22.607Z,177.60
2019-01-25T16:57:51.398Z,127.97
2019-01-25T17:00:23.669Z,149.53
2019-01-25T17:02:52.355Z,109.73
2019-01-25T17:05:21.248Z,141.60
2019-01-25T17:07:50.034Z,137.20
2019-01-25T17:10:18.959Z,105.50
2019-01-25T17:12:47.694Z,139.67
2019-01-25T17:15:16.789Z,118.97
2019-01-25T17:17:45.599Z,135.97
2019-01-25T17:20:19.163Z,94.07
2019-01-25T17:22:47.067Z,130.10
2019-01-25T17:25:16.095Z,121.73
2019-01-25T17:27:44.957Z,100.10
2019-01-25T17:30:25.418Z,124.50
2019-01-25T17:32:55.489Z,120.70
2019-01-25T17:35:24.304Z,97.37
2019-01-25T17:37:53.112Z,119.87
2019-01-25T17:40:30.280Z,113.70
2019-01-25T17:42:59.097Z,118.27
2019-01-25T17:45:27.978Z,136.30
2019-01-25T17:47:56.870Z,140.00
2019-01-25T17:50:25.662Z,131.70
2019-01-25T17:52:54.362Z,147.13
2019-01-25T17:55:23.446Z,128.73
2019-01-25T17:57:52.463Z,134.93
2019-01-25T18:00:34.229Z,120.90
2019-01-25T18:03:03.450Z,109.17
2019-01-25T18:05:35.070Z,110.03
2019-01-25T18:08:03.770Z,84.90
2019-01-25T18:10:32.765Z,118.97
2019-01-25T18:13:01.431Z,116.43
2019-01-25T18:15:33.930Z,90.90
2019-01-25T18:18:13.998Z,111.73
2019-01-25T18:20:42.846Z,87.90
2019-01-25T18:23:11.532Z,105.50
2019-01-25T18:25:43.509Z,95.20
2019-01-25T18:28:21.015Z,128.40
2019-01-25T18:31:02.069Z,85.40
2019-01-25T18:33:30.983Z,100.20
2019-01-25T18:35:59.666Z,96.97
2019-01-25T18:38:40.335Z,82.47
2019-01-25T18:41:09.139Z,105.60
2019-01-25T18:43:37.854Z,115.67
2019-01-25T18:46:06.599Z,115.30
2019-01-25T18:48:35.286Z,116.70
2019-01-25T18:51:04.178Z,121.97
2019-01-25T18:53:32.946Z,135.93
2019-01-25T18:56:01.657Z,107.57
2019-01-25T18:58:30.340Z,128.73
2019-01-25T19:00:59.128Z,142.37
2019-01-25T19:03:27.919Z,144.70
2019-01-25T19:05:56.861Z,106.50
2019-01-25T19:08:25.698Z,119.53
2019-01-25T19:10:54.590Z,128.07
2019-01-25T19:13:23.386Z,114.73
2019-01-25T19:15:52.271Z,108.20
2019-01-25T19:18:21.061Z,105.03
2019-01-25T19:20:49.848Z,96.10
2019-01-25T19:23:18.819Z,93.43
2019-01-25T19:25:47.523Z,108.87
2019-01-25T19:28:19.673Z,96.97
2019-01-25T19:30:48.589Z,112.20
2019-01-25T19:33:28.914Z,97.43
2019-01-25T19:35:56.739Z,124.70
2019-01-25T19:38:25.609Z,117.77
2019-01-25T19:40:54.399Z,89.50
2019-01-25T19:43:23.163Z,117.23
2019-01-25T19:45:51.972Z,101.20
2019-01-25T19:48:20.964Z,150.87
2019-01-25T19:50:49.859Z,146.73
2019-01-25T19:53:18.475Z,146.30
2019-01-25T19:55:47.229Z,187.47
2019-01-25T19:58:16.029Z,139.80
2019-01-25T20:00:46.567Z,166.20
2019-01-25T20:03:15.439Z,98.13
2019-01-25T20:05:44.535Z,133.40
2019-01-25T20:08:13.222Z,104.43
2019-01-25T20:10:41.995Z,121.13
2019-01-25T20:13:11.642Z,97.47
2019-01-25T20:15:40.406Z,118.93
2019-01-25T20:18:21.177Z,110.37
2019-01-25T20:20:50.424Z,127.87
2019-01-25T20:23:19.477Z,111.77
2019-01-25T20:25:48.259Z,131.20
2019-01-25T20:28:17.049Z,105.33
2019-01-25T20:30:49.832Z,132.10
2019-01-25T20:33:16.241Z,119.93
2019-01-25T20:35:45.116Z,96.90
2019-01-25T20:38:15.667Z,119.10
2019-01-25T20:40:44.681Z,102.27
2019-01-25T20:43:13.776Z,114.93
2019-01-25T20:45:43.083Z,100.40
2019-01-25T20:48:11.952Z,102.80
2019-01-25T20:50:41.300Z,79.97
2019-01-25T20:53:12.520Z,95.53
2019-01-25T20:55:41.408Z,105.07
2019-01-25T20:58:10.178Z,80.37
2019-01-25T21:00:42.311Z,117.37
2019-01-25T21:06:09.452Z,112.27
2019-01-25T21:08:47.467Z,107.83
2019-01-25T21:11:17.149Z,108.17
2019-01-25T21:13:45.827Z,106.93
2019-01-25T21:16:14.484Z,89.37
2019-01-25T21:18:44.262Z,110.57
2019-01-25T21:21:13.142Z,89.17
2019-01-25T21:23:41.912Z,135.43
2019-01-25T21:26:10.812Z,113.87
2019-01-25T21:28:39.700Z,139.37
2019-01-25T21:31:08.795Z,130.67
2019-01-25T21:33:37.543Z,154.43
2019-01-25T21:39:43.261Z,154.17
2019-01-25T21:42:12.129Z,149.40
2019-01-25T21:44:40.820Z,120.67
2019-01-25T21:47:09.632Z,141.83
2019-01-25T21:49:38.417Z,104.77
2019-01-25T21:52:07.305Z,133.37
2019-01-25T21:54:35.972Z,148.33
2019-01-25T21:57:04.902Z,177.03
2019-01-25T21:59:33.530Z,123.20
2019-01-25T22:02:02.257Z,149.93
2019-01-25T22:04:31.093Z,137.77
2019-01-25T22:06:59.835Z,157.90
2019-01-25T22:09:28.727Z,144.57
2019-01-25T22:11:57.617Z,114.40
2019-01-25T22:14:26.520Z,140.40
2019-01-25T22:16:55.302Z,121.63
2019-01-25T22:19:24.119Z,136.03
2019-01-25T22:21:52.874Z,139.27
2019-01-25T22:24:22.389Z,97.80
2019-01-25T22:26:51.373Z,123.20
2019-01-25T22:29:20.555Z,134.37
2019-01-25T22:31:49.911Z,99.17
2019-01-25T22:34:19.377Z,146.70
2019-01-25T22:36:48.481Z,130.17
2019-01-25T22:39:17.372Z,125.20
2019-01-25T22:41:46.122Z,76.07
2019-01-25T22:44:15.527Z,97.17
2019-01-25T22:46:44.541Z,102.67
2019-01-25T22:49:14.337Z,103.50
2019-01-25T22:51:43.892Z,98.97
2019-01-25T22:54:13.350Z,103.67
2019-01-25T22:56:42.045Z,97.73
2019-01-25T22:59:11.391Z,101.13
2019-01-25T23:01:42.980Z,117.27
2019-01-25T23:04:29.521Z,108.23
2019-01-25T23:06:59.445Z,111.40
2019-01-25T23:09:30.119Z,107.53
2019-01-25T23:11:59.412Z,95.90
2019-01-25T23:14:28.470Z,107.23
2019-01-25T23:16:57.590Z,105.37
2019-01-25T23:19:26.442Z,101.37
2019-01-25T23:21:55.145Z,94.00
2019-01-25T23:24:23.827Z,91.37
2019-01-25T23:26:52.805Z,102.33
2019-01-25T23:29:21.608Z,101.90
2019-01-25T23:31:50.296Z,96.17
2019-01-25T23:34:19.086Z,102.00
2019-01-25T23:36:47.979Z,106.63
2019-01-25T23:39:16.661Z,105.30
2019-01-25T23:41:45.435Z,109.40
2019-01-25T23:44:14.136Z,101.30
2019-01-25T23:46:42.825Z,108.67
2019-01-25T23:49:11.618Z,104.93
2019-01-25T23:51:40.401Z,113.60
2019-01-25T23:54:09.165Z,104.23
2019-01-25T23:56:37.979Z,100.53
2019-01-25T23:59:06.767Z,100.40
